Freeburg, Missouri
Current Conditions -  °F | °C
As of 5:53 AM on Monday 20 Oct 2014 (Local Time) from KVIH Reporting Station
Broken Clouds Broken Clouds  
Wind Chill: 45°   Ceiling: 11000
Heat Index: 49°   Visibility: 10mi
Dew Point: 46°   Wind: 8mph
Humidity: 90%   Direction: 220°SW
Pressure: 29.99"   Gusts: NA
Location:  38.32°N, 91.92°W
Report Text: KVIH 201053Z AUTO 22007KT 10SM SCT060 BKN110 09/08 A2999 RMK AO2 SLP153 T00940078
Loading
Personal Weather Stations






























Interactive Weather Map New forecast layout! Learn more

10-Day Weather Forecast

Advertisements
Track Severe Weather on mobile